createdAt,value
2019-01-11T00:00:57.516Z,2.02
2019-01-11T00:01:57.515Z,2.04
2019-01-11T00:02:57.517Z,1.94
2019-01-11T00:03:57.533Z,2.08
2019-01-11T00:04:57.489Z,2.02
2019-01-11T00:05:57.467Z,1.99
2019-01-11T00:06:57.476Z,1.91
2019-01-11T00:07:57.470Z,1.84
2019-01-11T00:08:57.436Z,1.81
2019-01-11T00:09:57.419Z,1.88
2019-01-11T00:10:57.402Z,1.88
2019-01-11T00:11:57.394Z,1.80
2019-01-11T00:12:57.390Z,1.80
2019-01-11T00:13:57.399Z,1.88
2019-01-11T00:14:57.368Z,1.95
2019-01-11T00:15:57.377Z,1.99
2019-01-11T00:16:57.346Z,2.04
2019-01-11T00:17:57.330Z,1.99
2019-01-11T00:18:57.326Z,1.95
2019-01-11T00:20:03.358Z,1.94
2019-01-11T00:20:58.335Z,2.07
2019-01-11T00:21:57.297Z,1.94
2019-01-11T00:22:57.316Z,2.02
2019-01-11T00:23:57.266Z,1.99
2019-01-11T00:24:57.252Z,1.97
2019-01-11T00:25:57.246Z,2.06
2019-01-11T00:26:57.256Z,2.08
2019-01-11T00:27:57.228Z,1.97
2019-01-11T00:28:57.214Z,1.97
2019-01-11T00:29:57.197Z,2.02
2019-01-11T00:30:57.188Z,2.00
2019-01-11T00:31:57.210Z,2.00
2019-01-11T00:32:57.165Z,1.95
2019-01-11T00:33:57.807Z,2.14
2019-01-11T00:34:57.149Z,2.07
2019-01-11T00:35:57.160Z,2.08
2019-01-11T00:36:57.123Z,2.13
2019-01-11T00:37:57.104Z,2.08
2019-01-11T00:38:57.099Z,2.11
2019-01-11T00:39:57.086Z,2.08
2019-01-11T00:40:57.076Z,2.07
2019-01-11T00:41:57.093Z,2.11
2019-01-11T00:42:57.059Z,2.02
2019-01-11T00:43:57.848Z,2.08
2019-01-11T00:44:57.033Z,2.07
2019-01-11T00:45:57.035Z,2.10
2019-01-11T00:46:57.035Z,2.11
2019-01-11T00:47:57.003Z,2.08
2019-01-11T00:48:56.987Z,2.14
2019-01-11T00:49:56.974Z,2.11
2019-01-11T00:50:56.975Z,2.08
2019-01-11T00:51:56.956Z,2.07
2019-01-11T00:52:56.972Z,1.99
2019-01-11T00:53:56.934Z,1.99
2019-01-11T00:54:56.921Z,2.02
2019-01-11T00:55:56.908Z,2.04
2019-01-11T00:56:56.909Z,1.89
2019-01-11T00:57:56.914Z,1.94
2019-01-11T00:58:56.884Z,1.88
2019-01-11T00:59:57.009Z,1.81
2019-01-11T01:00:56.855Z,1.78
2019-01-11T01:01:56.850Z,1.85
2019-01-11T01:02:56.893Z,1.80
2019-01-11T01:03:56.824Z,1.80
2019-01-11T01:04:56.820Z,1.81
2019-01-11T01:05:56.830Z,1.81
2019-01-11T01:06:56.793Z,1.88
2019-01-11T01:07:56.788Z,1.85
2019-01-11T01:08:56.792Z,1.85
2019-01-11T01:09:56.769Z,1.88
2019-01-11T01:10:56.752Z,1.81
2019-01-11T01:11:56.736Z,1.88
2019-01-11T01:12:56.721Z,1.85
2019-01-11T01:13:56.720Z,1.85
2019-01-11T01:14:56.731Z,1.87
2019-01-11T01:15:56.709Z,1.84
2019-01-11T01:16:56.682Z,1.80
2019-01-11T01:17:56.686Z,1.85
2019-01-11T01:18:56.671Z,1.80
2019-01-11T01:19:56.651Z,1.89
2019-01-11T01:20:56.683Z,1.89
2019-01-11T01:21:56.634Z,1.80
2019-01-11T01:22:56.613Z,1.87
2019-01-11T01:23:56.648Z,1.88
2019-01-11T01:24:56.591Z,1.77
2019-01-11T01:25:56.579Z,1.81
2019-01-11T01:26:56.619Z,1.85
2019-01-11T01:27:56.559Z,1.85
2019-01-11T01:28:56.554Z,1.80
2019-01-11T01:29:56.532Z,1.87
2019-01-11T01:30:56.527Z,1.88
2019-01-11T01:31:56.542Z,1.85
2019-01-11T01:32:56.503Z,1.81
2019-01-11T01:33:56.499Z,1.81
2019-01-11T01:34:56.488Z,1.84
2019-01-11T01:35:56.470Z,1.88
2019-01-11T01:36:56.487Z,1.89
2019-01-11T01:37:56.448Z,1.92
2019-01-11T01:38:56.437Z,1.88
2019-01-11T01:39:56.562Z,1.89
2019-01-11T01:40:56.422Z,1.89
2019-01-11T01:41:56.402Z,1.89
2019-01-11T01:42:56.423Z,2.06
2019-01-11T01:43:56.391Z,2.04
2019-01-11T01:44:56.373Z,2.02
2019-01-11T01:45:56.358Z,1.99
2019-01-11T01:46:56.357Z,1.99
2019-01-11T01:47:56.338Z,1.95
2019-01-11T01:48:56.359Z,1.97
2019-01-11T01:49:56.324Z,1.95
2019-01-11T01:50:56.304Z,1.94
2019-01-11T01:51:56.303Z,2.02
2019-01-11T01:52:56.292Z,2.04
2019-01-11T01:53:56.307Z,2.00
2019-01-11T01:54:56.264Z,2.00
2019-01-11T01:55:56.385Z,2.04
2019-01-11T01:56:56.245Z,2.11
2019-01-11T01:57:56.228Z,2.07
2019-01-11T01:58:56.234Z,2.11
2019-01-11T01:59:56.215Z,2.10
2019-01-11T02:00:56.195Z,2.13
2019-01-11T02:01:56.232Z,2.15
2019-01-11T02:02:56.175Z,2.13
2019-01-11T02:03:56.171Z,2.08
2019-01-11T02:04:56.170Z,2.14
2019-01-11T02:05:56.139Z,2.15
2019-01-11T02:06:56.145Z,2.11
2019-01-11T02:07:56.143Z,2.14
2019-01-11T02:08:56.119Z,2.13
2019-01-11T02:09:56.113Z,2.13
2019-01-11T02:10:56.083Z,2.17
2019-01-11T02:11:56.168Z,2.14
2019-01-11T02:12:56.064Z,2.25
2019-01-11T02:13:56.088Z,2.17
2019-01-11T02:14:56.041Z,2.24
2019-01-11T02:15:56.035Z,2.22
2019-01-11T02:16:56.046Z,2.14
2019-01-11T02:17:56.006Z,2.11
2019-01-11T02:18:56.014Z,2.15
2019-01-11T02:19:56.062Z,2.15
2019-01-11T02:20:55.974Z,2.08
2019-01-11T02:21:55.968Z,2.14
2019-01-11T02:22:55.973Z,2.13
2019-01-11T02:23:55.979Z,1.95
2019-01-11T02:24:55.945Z,2.02
2019-01-11T02:25:55.918Z,1.99
2019-01-11T02:26:55.912Z,2.11
2019-01-11T02:27:55.934Z,2.00
2019-01-11T02:28:55.886Z,1.97
2019-01-11T02:29:55.895Z,1.97
2019-01-11T02:30:55.873Z,2.04
2019-01-11T02:31:55.855Z,2.04
2019-01-11T02:32:55.872Z,2.07
2019-01-11T02:33:55.835Z,2.00
2019-01-11T02:34:55.854Z,2.02
2019-01-11T02:35:55.844Z,1.97
2019-01-11T02:36:55.801Z,2.04
2019-01-11T02:37:55.788Z,2.02
2019-01-11T02:38:55.864Z,1.97
2019-01-11T02:39:55.777Z,2.02
2019-01-11T02:40:55.796Z,1.99
2019-01-11T02:41:55.753Z,1.99
2019-01-11T02:42:55.732Z,1.97
2019-01-11T02:43:55.722Z,2.07
2019-01-11T02:44:55.731Z,2.04
2019-01-11T02:45:55.700Z,2.04
2019-01-11T02:46:55.693Z,2.04
2019-01-11T02:47:55.680Z,1.97
2019-01-11T02:48:55.667Z,2.04
2019-01-11T02:49:55.664Z,2.00
2019-01-11T02:50:55.666Z,1.92
2019-01-11T02:51:55.665Z,1.97
2019-01-11T02:52:55.627Z,2.07
2019-01-11T02:53:55.618Z,2.04
2019-01-11T02:54:55.603Z,2.07
2019-01-11T02:55:55.616Z,1.91
2019-01-11T02:56:55.602Z,2.06
2019-01-11T02:57:55.568Z,2.04
2019-01-11T02:58:55.557Z,2.00
2019-01-11T02:59:55.556Z,2.13
2019-01-11T03:00:55.542Z,1.99
2019-01-11T03:01:55.547Z,2.02
2019-01-11T03:02:55.559Z,1.99
2019-01-11T03:03:55.508Z,2.10
2019-01-11T03:04:55.499Z,1.97
2019-01-11T03:05:55.489Z,1.94
2019-01-11T03:06:55.470Z,2.04
2019-01-11T03:07:55.456Z,2.00
2019-01-11T03:08:55.468Z,1.97
2019-01-11T03:09:55.440Z,2.04
2019-01-11T03:10:55.428Z,1.97
2019-01-11T03:11:55.421Z,2.02
2019-01-11T03:12:55.595Z,2.04
2019-01-11T03:13:55.408Z,2.07
2019-01-11T03:14:55.383Z,2.06
2019-01-11T03:15:55.431Z,2.07
2019-01-11T03:16:55.361Z,1.99
2019-01-11T03:17:55.346Z,2.02
2019-01-11T03:18:55.364Z,1.94
2019-01-11T03:19:55.350Z,2.04
2019-01-11T03:20:55.356Z,2.08
2019-01-11T03:21:55.306Z,2.08
2019-01-11T03:22:55.294Z,2.22
2019-01-11T03:23:55.284Z,2.14
2019-01-11T03:24:55.274Z,2.18
2019-01-11T03:25:55.264Z,2.14
2019-01-11T03:26:55.271Z,2.13
2019-01-11T03:27:55.270Z,2.15
2019-01-11T03:28:55.240Z,2.11
2019-01-11T03:29:55.219Z,2.14
2019-01-11T03:30:55.238Z,2.04
2019-01-11T03:31:55.456Z,2.11
2019-01-11T03:32:55.184Z,2.22
2019-01-11T03:33:55.187Z,2.15
2019-01-11T03:34:55.167Z,2.20
2019-01-11T03:35:55.172Z,2.18
2019-01-11T03:36:55.169Z,2.25
2019-01-11T03:37:55.152Z,2.29
2019-01-11T03:38:55.122Z,2.32
2019-01-11T03:39:55.118Z,2.29
2019-01-11T03:40:55.097Z,2.25
2019-01-11T03:41:55.113Z,2.26
2019-01-11T03:42:55.076Z,2.29
2019-01-11T03:43:55.077Z,2.28
2019-01-11T03:44:55.053Z,2.31
2019-01-11T03:45:55.042Z,2.32
2019-01-11T03:46:55.031Z,2.28
2019-01-11T03:47:55.084Z,2.22
2019-01-11T03:48:55.006Z,2.26
2019-01-11T03:49:55.177Z,2.26
2019-01-11T03:50:55.031Z,2.28
2019-01-11T03:51:54.970Z,2.29
2019-01-11T03:52:54.999Z,2.22
2019-01-11T03:53:54.949Z,2.24
2019-01-11T03:54:54.936Z,2.28
2019-01-11T03:55:54.923Z,2.31
2019-01-11T03:56:54.916Z,2.28
2019-01-11T03:57:54.905Z,2.24
2019-01-11T03:58:54.931Z,2.38
2019-01-11T03:59:54.890Z,2.22
2019-01-11T04:00:54.879Z,2.28
2019-01-11T04:01:54.882Z,2.25
2019-01-11T04:02:54.850Z,2.31
2019-01-11T04:03:54.858Z,2.24
2019-01-11T04:04:54.828Z,2.28
2019-01-11T04:05:54.829Z,2.26
2019-01-11T04:06:54.838Z,2.24
2019-01-11T04:07:54.791Z,2.29
2019-01-11T04:08:55.368Z,2.29
2019-01-11T04:09:54.777Z,2.29
2019-01-11T04:10:54.763Z,2.32
2019-01-11T04:11:54.792Z,2.33
2019-01-11T04:12:54.779Z,2.29
2019-01-11T04:13:54.733Z,2.33
2019-01-11T04:14:54.768Z,2.38
2019-01-11T04:15:54.707Z,2.38
2019-01-11T04:16:54.698Z,2.32
2019-01-11T04:17:54.721Z,2.46
2019-01-11T04:18:54.681Z,2.33
2019-01-11T04:19:54.668Z,2.42
2019-01-11T04:20:54.656Z,2.35
2019-01-11T04:21:54.642Z,2.44
2019-01-11T04:22:54.661Z,2.38
2019-01-11T04:23:54.623Z,2.43
2019-01-11T04:24:54.610Z,2.36
2019-01-11T04:25:54.603Z,2.46
2019-01-11T04:26:54.588Z,2.39
2019-01-11T04:27:54.691Z,2.43
2019-01-11T04:28:54.560Z,2.38
2019-01-11T04:29:54.555Z,2.38
2019-01-11T04:30:55.377Z,2.46
2019-01-11T04:31:54.540Z,2.47
2019-01-11T04:32:54.552Z,2.44
2019-01-11T04:33:54.544Z,2.47
2019-01-11T04:34:54.506Z,2.43
2019-01-11T04:35:54.512Z,2.46
2019-01-11T04:36:54.472Z,2.44
2019-01-11T04:37:54.491Z,2.46
2019-01-11T04:38:54.464Z,2.44
2019-01-11T04:39:54.467Z,2.43
2019-01-11T04:40:54.455Z,2.43
2019-01-11T04:41:54.420Z,2.42
2019-01-11T04:42:54.410Z,2.42
2019-01-11T04:43:54.419Z,2.46
2019-01-11T04:44:54.388Z,2.46
2019-01-11T04:45:54.375Z,2.49
2019-01-11T04:46:54.397Z,2.46
2019-01-11T04:47:54.357Z,2.46
2019-01-11T04:48:54.342Z,2.49
2019-01-11T04:49:54.336Z,2.56
2019-01-11T04:50:54.326Z,2.49
2019-01-11T04:51:54.391Z,2.56
2019-01-11T04:52:54.327Z,2.51
2019-01-11T04:53:54.316Z,2.54
2019-01-11T04:54:54.320Z,2.53
2019-01-11T04:55:54.295Z,2.60
2019-01-11T04:56:54.278Z,2.53
2019-01-11T04:57:54.269Z,2.51
2019-01-11T04:58:54.236Z,2.56
2019-01-11T04:59:54.225Z,2.43
2019-01-11T05:00:54.219Z,2.57
2019-01-11T05:01:54.225Z,2.54
2019-01-11T05:02:54.192Z,2.61
2019-01-11T05:03:54.203Z,2.56
2019-01-11T05:04:54.195Z,2.56
2019-01-11T05:05:54.158Z,2.54
2019-01-11T05:06:54.142Z,2.67
2019-01-11T05:07:54.873Z,2.65
2019-01-11T05:08:54.142Z,2.65
2019-01-11T05:09:54.111Z,2.60
2019-01-11T05:10:54.121Z,2.64
2019-01-11T05:11:54.091Z,2.56
2019-01-11T05:12:54.080Z,2.60
2019-01-11T05:13:54.124Z,2.68
2019-01-11T05:14:54.057Z,2.65
2019-01-11T05:15:54.053Z,2.57
2019-01-11T05:16:54.036Z,2.65
2019-01-11T05:17:54.026Z,2.62
2019-01-11T05:18:54.010Z,2.68
2019-01-11T05:19:54.017Z,2.67
2019-01-11T05:20:54.014Z,2.65
2019-01-11T05:21:53.979Z,2.75
2019-01-11T05:22:53.973Z,2.67
2019-01-11T05:23:53.963Z,2.67
2019-01-11T05:24:53.982Z,2.65
2019-01-11T05:25:53.934Z,2.64
2019-01-11T05:26:54.003Z,2.74
2019-01-11T05:27:53.919Z,2.65
2019-01-11T05:28:53.903Z,2.60
2019-01-11T05:29:53.893Z,2.68
2019-01-11T05:30:53.883Z,2.57
2019-01-11T05:31:54.876Z,2.69
2019-01-11T05:32:53.889Z,2.67
2019-01-11T05:33:53.887Z,2.74
2019-01-11T05:34:53.914Z,2.79
2019-01-11T05:35:53.833Z,2.74
2019-01-11T05:36:53.814Z,2.79
2019-01-11T05:37:53.806Z,2.71
2019-01-11T05:38:53.798Z,2.79
2019-01-11T05:39:53.805Z,2.67
2019-01-11T05:40:53.771Z,2.68
2019-01-11T05:41:53.762Z,2.74
2019-01-11T05:42:53.752Z,2.72
2019-01-11T05:43:53.738Z,2.69
2019-01-11T05:44:53.723Z,2.74
2019-01-11T05:45:53.755Z,2.64
2019-01-11T05:46:53.701Z,2.60
2019-01-11T05:47:53.740Z,2.61
2019-01-11T05:48:53.688Z,2.57
2019-01-11T05:49:53.680Z,2.64
2019-01-11T05:50:53.691Z,2.65
2019-01-11T05:51:53.678Z,2.57
2019-01-11T05:52:53.653Z,2.62
2019-01-11T05:53:53.627Z,2.65
2019-01-11T05:54:53.615Z,2.61
2019-01-11T05:55:53.607Z,2.60
2019-01-11T05:56:53.622Z,2.62
2019-01-11T05:57:53.584Z,2.62
2019-01-11T05:59:00.661Z,2.61
2019-01-11T05:59:53.564Z,2.65
2019-01-11T06:00:53.572Z,2.51
2019-01-11T06:01:53.539Z,2.62
2019-01-11T06:02:53.560Z,2.64
2019-01-11T06:03:53.650Z,2.64
2019-01-11T06:04:53.522Z,2.56
2019-01-11T06:05:53.493Z,2.57
2019-01-11T06:06:53.492Z,2.57
2019-01-11T06:07:53.479Z,2.53
2019-01-11T06:08:53.511Z,2.65
2019-01-11T06:09:53.457Z,2.67
2019-01-11T06:10:53.446Z,2.60
2019-01-11T06:11:53.437Z,2.62
2019-01-11T06:12:53.416Z,2.56
2019-01-11T06:13:53.433Z,2.64
2019-01-11T06:14:53.399Z,2.65
2019-01-11T06:15:53.405Z,2.60
2019-01-11T06:16:53.373Z,2.64
2019-01-11T06:17:53.370Z,2.68
2019-01-11T06:18:53.398Z,2.71
2019-01-11T06:19:53.471Z,2.67
2019-01-11T06:20:53.330Z,2.64
2019-01-11T06:21:53.329Z,2.62
2019-01-11T06:22:53.328Z,2.75
2019-01-11T06:23:53.307Z,2.69
2019-01-11T06:24:53.323Z,2.67
2019-01-11T06:25:53.288Z,2.71
2019-01-11T06:26:53.271Z,2.74
2019-01-11T06:27:53.317Z,2.61
2019-01-11T06:28:53.248Z,2.75
2019-01-11T06:29:53.307Z,2.61
2019-01-11T06:30:53.220Z,2.71
2019-01-11T06:31:53.215Z,2.74
2019-01-11T06:32:53.208Z,2.74
2019-01-11T06:33:53.194Z,2.75
2019-01-11T06:34:53.180Z,2.85
2019-01-11T06:35:53.216Z,2.74
2019-01-11T06:36:53.173Z,2.74
2019-01-11T06:37:53.150Z,2.79
2019-01-11T06:38:53.153Z,2.74
2019-01-11T06:39:53.127Z,2.74
2019-01-11T06:40:53.116Z,2.77
2019-01-11T06:41:53.222Z,2.74
2019-01-11T06:42:53.324Z,2.74
2019-01-11T06:43:53.085Z,2.79
2019-01-11T06:44:53.089Z,2.82
2019-01-11T06:45:53.078Z,2.86
2019-01-11T06:46:53.071Z,2.86
2019-01-11T06:47:53.236Z,2.85
2019-01-11T06:48:53.027Z,2.82
2019-01-11T06:49:53.021Z,2.83
2019-01-11T06:50:53.510Z,2.86
2019-01-11T06:51:53.007Z,2.86
2019-01-11T06:52:53.041Z,2.89
2019-01-11T06:53:52.969Z,2.77
2019-01-11T06:54:52.957Z,2.77
2019-01-11T06:55:52.960Z,2.80
2019-01-11T06:56:52.966Z,2.85
2019-01-11T06:57:52.967Z,2.92
2019-01-11T06:58:52.917Z,2.74
2019-01-11T06:59:52.986Z,2.75
2019-01-11T07:00:52.931Z,2.87
2019-01-11T07:01:52.966Z,2.80
2019-01-11T07:02:52.965Z,2.85
2019-01-11T07:03:53.206Z,2.82
2019-01-11T07:04:52.935Z,2.80
2019-01-11T07:05:52.862Z,2.85
2019-01-11T07:06:52.829Z,2.79
2019-01-11T07:07:52.852Z,2.90
2019-01-11T07:08:52.810Z,2.86
2019-01-11T07:09:52.840Z,2.85
2019-01-11T07:10:52.843Z,2.83
2019-01-11T07:11:52.764Z,3.05
2019-01-11T07:12:52.775Z,2.92
2019-01-11T07:13:52.772Z,2.90
2019-01-11T07:14:52.733Z,3.01
2019-01-11T07:15:52.798Z,3.00
2019-01-11T07:16:52.714Z,3.03
2019-01-11T07:17:52.707Z,2.95
2019-01-11T07:18:52.694Z,3.04
2019-01-11T07:19:52.702Z,2.95
2019-01-11T07:20:52.715Z,2.97
2019-01-11T07:21:52.679Z,3.00
2019-01-11T07:22:52.662Z,2.95
2019-01-11T07:23:52.641Z,2.95
2019-01-11T07:24:52.626Z,3.01
2019-01-11T07:25:52.641Z,3.01
2019-01-11T07:26:52.622Z,3.00
2019-01-11T07:27:52.592Z,3.01
2019-01-11T07:28:52.586Z,3.03
2019-01-11T07:29:52.578Z,3.00
2019-01-11T07:30:52.566Z,3.08
2019-01-11T07:31:52.562Z,3.00
2019-01-11T07:32:52.572Z,3.10
2019-01-11T07:33:52.606Z,3.03
2019-01-11T07:34:52.518Z,2.97
2019-01-11T07:35:52.505Z,3.00
2019-01-11T07:36:52.555Z,3.07
2019-01-11T07:37:52.541Z,3.11
2019-01-11T07:38:52.472Z,3.13
2019-01-11T07:39:52.461Z,3.07
2019-01-11T07:40:52.452Z,3.11
2019-01-11T07:41:52.452Z,3.11
2019-01-11T07:42:52.432Z,3.18
2019-01-11T07:43:52.446Z,3.13
2019-01-11T07:44:52.408Z,3.16
2019-01-11T07:45:52.401Z,3.14
2019-01-11T07:46:52.400Z,3.18
2019-01-11T07:47:52.452Z,3.13
2019-01-11T07:48:52.363Z,3.23
2019-01-11T07:49:52.369Z,3.14
2019-01-11T07:50:52.345Z,3.29
2019-01-11T07:51:52.382Z,3.16
2019-01-11T07:52:52.477Z,3.21
2019-01-11T07:53:52.344Z,3.28
2019-01-11T07:54:52.314Z,3.23
2019-01-11T07:55:52.309Z,3.26
2019-01-11T07:56:52.280Z,3.16
2019-01-11T07:57:52.284Z,3.28
2019-01-11T07:58:52.255Z,3.25
2019-01-11T07:59:52.271Z,3.31
2019-01-11T08:00:52.237Z,3.32
2019-01-11T08:01:52.231Z,3.41
2019-01-11T08:02:52.283Z,3.28
2019-01-11T08:03:52.200Z,3.26
2019-01-11T08:04:52.210Z,3.23
2019-01-11T08:05:52.184Z,3.28
2019-01-11T08:06:52.179Z,3.29
2019-01-11T08:07:52.158Z,3.31
2019-01-11T08:08:52.225Z,3.42
2019-01-11T08:09:52.130Z,3.42
2019-01-11T08:10:52.145Z,3.40
2019-01-11T08:11:52.148Z,3.36
2019-01-11T08:12:52.098Z,3.37
2019-01-11T08:13:52.111Z,3.51
2019-01-11T08:14:52.081Z,3.44
2019-01-11T08:15:52.115Z,3.50
2019-01-11T08:16:52.078Z,3.44
2019-01-11T08:17:52.052Z,3.44
2019-01-11T08:18:52.039Z,3.41
2019-01-11T08:19:52.027Z,3.48
2019-01-11T08:20:56.218Z,3.44
2019-01-11T08:21:52.027Z,3.41
2019-01-11T08:22:52.017Z,3.36
2019-01-11T08:23:52.001Z,3.32
2019-01-11T08:24:51.993Z,3.34
2019-01-11T08:25:51.967Z,3.34
2019-01-11T08:26:51.948Z,3.37
2019-01-11T08:27:51.950Z,3.48
2019-01-11T08:28:51.923Z,3.40
2019-01-11T08:29:52.071Z,3.41
2019-01-11T08:30:51.918Z,3.47
2019-01-11T08:31:51.893Z,3.47
2019-01-11T08:32:51.926Z,3.45
2019-01-11T08:33:51.868Z,3.41
2019-01-11T08:34:51.861Z,3.34
2019-01-11T08:35:51.873Z,3.40
2019-01-11T08:36:51.852Z,3.50
2019-01-11T08:37:51.842Z,3.50
2019-01-11T08:38:51.826Z,3.47
2019-01-11T08:39:51.805Z,3.48
2019-01-11T08:40:51.840Z,3.45
2019-01-11T08:41:51.794Z,3.56
2019-01-11T08:42:51.777Z,3.48
2019-01-11T08:43:51.792Z,3.50
2019-01-11T08:44:51.747Z,3.58
2019-01-11T08:45:51.748Z,3.56
2019-01-11T08:46:51.745Z,3.60
2019-01-11T08:47:51.711Z,3.60
2019-01-11T08:48:51.718Z,3.53
2019-01-11T08:49:51.697Z,3.63
2019-01-11T08:50:51.692Z,3.58
2019-01-11T08:51:51.696Z,3.62
2019-01-11T08:52:51.693Z,3.62
2019-01-11T08:53:51.645Z,3.76
2019-01-11T08:54:51.638Z,3.78
2019-01-11T08:55:51.626Z,3.76
2019-01-11T08:56:51.619Z,3.73
2019-01-11T08:57:51.600Z,3.69
2019-01-11T08:58:51.620Z,3.77
2019-01-11T08:59:51.582Z,3.70
2019-01-11T09:00:51.571Z,3.74
2019-01-11T09:01:51.565Z,3.81
2019-01-11T09:02:51.585Z,3.81
2019-01-11T09:03:51.545Z,3.80
2019-01-11T09:04:51.550Z,3.77
2019-01-11T09:05:51.522Z,3.77
2019-01-11T09:06:51.510Z,3.76
2019-01-11T09:07:51.510Z,3.84
2019-01-11T09:08:51.517Z,3.86
2019-01-11T09:09:51.645Z,3.86
2019-01-11T09:10:51.462Z,3.81
2019-01-11T09:11:51.458Z,3.80
2019-01-11T09:12:51.479Z,3.83
2019-01-11T09:13:51.427Z,3.73
2019-01-11T09:14:51.433Z,3.87
2019-01-11T09:15:51.437Z,3.81
2019-01-11T09:16:51.389Z,3.70
2019-01-11T09:17:51.392Z,3.77
2019-01-11T09:18:51.367Z,3.78
2019-01-11T09:19:51.360Z,3.80
2019-01-11T09:20:51.392Z,3.81
2019-01-11T09:21:51.337Z,3.78
2019-01-11T09:22:51.347Z,3.80
2019-01-11T09:23:51.316Z,3.91
2019-01-11T09:24:51.300Z,3.87
2019-01-11T09:25:51.299Z,3.87
2019-01-11T09:26:51.578Z,4.04
2019-01-11T09:27:51.334Z,3.94
2019-01-11T09:28:51.329Z,4.04
2019-01-11T09:29:51.250Z,4.04
2019-01-11T09:30:51.237Z,4.10
2019-01-11T09:31:51.226Z,4.02
2019-01-11T09:32:51.214Z,4.05
2019-01-11T09:33:51.220Z,4.05
2019-01-11T09:34:51.201Z,4.06
2019-01-11T09:35:51.208Z,4.04
2019-01-11T09:36:51.172Z,4.02
2019-01-11T09:37:51.195Z,4.04
2019-01-11T09:38:51.176Z,4.06
2019-01-11T09:39:51.153Z,4.06
2019-01-11T09:40:51.136Z,4.01
2019-01-11T09:41:51.116Z,4.01
2019-01-11T09:42:51.145Z,4.05
2019-01-11T09:43:51.219Z,4.08
2019-01-11T09:44:51.113Z,4.06
2019-01-11T09:45:51.092Z,4.06
2019-01-11T09:46:51.073Z,4.08
2019-01-11T09:47:51.053Z,4.10
2019-01-11T09:48:51.117Z,4.23
2019-01-11T09:49:51.041Z,4.24
2019-01-11T09:50:51.040Z,4.19
2019-01-11T09:51:51.009Z,4.24
2019-01-11T09:52:51.016Z,4.23
2019-01-11T09:53:50.988Z,4.26
2019-01-11T09:54:51.013Z,4.31
2019-01-11T09:55:50.961Z,4.34
2019-01-11T09:56:50.955Z,4.34
2019-01-11T09:57:50.946Z,4.34
2019-01-11T09:58:50.933Z,4.30
2019-01-11T09:59:50.913Z,4.40
2019-01-11T10:00:50.937Z,4.34
2019-01-11T10:01:50.918Z,4.48
2019-01-11T10:02:50.932Z,4.35
2019-01-11T10:03:50.878Z,4.49
2019-01-11T10:04:50.869Z,4.42
2019-01-11T10:05:50.989Z,4.42
2019-01-11T10:06:50.845Z,4.42
2019-01-11T10:07:50.867Z,4.49
2019-01-11T10:08:51.050Z,4.44
2019-01-11T10:09:50.929Z,4.44
2019-01-11T10:10:50.793Z,4.44
2019-01-11T10:11:50.788Z,4.49
2019-01-11T10:12:50.955Z,4.52
2019-01-11T10:13:51.184Z,4.52
2019-01-11T10:14:50.798Z,4.55
2019-01-11T10:15:50.861Z,4.52
2019-01-11T10:16:50.783Z,4.53
2019-01-11T10:17:50.724Z,4.56
2019-01-11T10:18:50.736Z,4.56
2019-01-11T10:19:50.696Z,4.55
2019-01-11T10:20:51.916Z,4.50
2019-01-11T10:21:50.688Z,4.53
2019-01-11T10:22:50.680Z,4.60
2019-01-11T10:23:50.663Z,4.59
2019-01-11T10:24:50.717Z,4.59
2019-01-11T10:25:50.648Z,4.56
2019-01-11T10:26:50.661Z,4.63
2019-01-11T10:27:50.637Z,4.58
2019-01-11T10:28:50.604Z,4.66
2019-01-11T10:29:50.590Z,4.59
2019-01-11T10:30:50.583Z,4.67
2019-01-11T10:31:50.591Z,4.63
2019-01-11T10:32:50.600Z,4.73
2019-01-11T10:33:50.541Z,4.67
2019-01-11T10:34:50.547Z,4.78
2019-01-11T10:35:50.525Z,4.70
2019-01-11T10:36:50.510Z,4.71
2019-01-11T10:37:50.513Z,4.75
2019-01-11T10:38:50.517Z,4.77
2019-01-11T10:39:50.480Z,4.87
2019-01-11T10:40:50.475Z,4.90
2019-01-11T10:41:50.464Z,4.87
2019-01-11T10:42:50.480Z,4.84
2019-01-11T10:43:50.433Z,4.90
2019-01-11T10:44:50.422Z,4.82
2019-01-11T10:45:50.609Z,4.77
2019-01-11T10:46:50.406Z,4.74
2019-01-11T10:47:50.388Z,4.75
2019-01-11T10:48:50.415Z,4.87
2019-01-11T10:49:50.368Z,4.70
2019-01-11T10:50:50.358Z,4.87
2019-01-11T10:51:50.347Z,4.90
2019-01-11T10:52:50.337Z,4.82
2019-01-11T10:53:50.352Z,4.87
2019-01-11T10:54:50.327Z,4.89
2019-01-11T10:55:50.300Z,4.84
2019-01-11T10:56:50.288Z,4.94
2019-01-11T10:57:50.324Z,4.96
2019-01-11T10:58:50.268Z,4.97
2019-01-11T10:59:50.291Z,4.94
2019-01-11T11:00:50.272Z,4.99
2019-01-11T11:01:50.236Z,4.96
2019-01-11T11:02:50.250Z,5.05
2019-01-11T11:03:50.217Z,5.08
2019-01-11T11:04:50.288Z,5.12
2019-01-11T11:05:50.224Z,5.17
2019-01-11T11:06:50.204Z,5.14
2019-01-11T11:07:50.169Z,5.15
2019-01-11T11:08:50.176Z,5.17
2019-01-11T11:09:50.149Z,5.20
2019-01-11T11:10:50.164Z,5.26
2019-01-11T11:11:50.121Z,5.26
2019-01-11T11:12:50.131Z,5.21
2019-01-11T11:13:50.107Z,5.29
2019-01-11T11:14:50.128Z,5.35
2019-01-11T11:15:50.088Z,5.36
2019-01-11T11:16:50.112Z,5.39
2019-01-11T11:17:50.064Z,5.35
2019-01-11T11:18:50.076Z,5.32
2019-01-11T11:19:50.035Z,5.41
2019-01-11T11:20:50.030Z,5.44
2019-01-11T11:21:50.015Z,5.44
2019-01-11T11:22:50.031Z,5.50
2019-01-11T11:23:53.919Z,5.48
2019-01-11T11:24:50.003Z,5.51
2019-01-11T11:25:49.967Z,5.48
2019-01-11T11:26:49.967Z,5.53
2019-01-11T11:27:49.977Z,5.57
2019-01-11T11:28:49.944Z,5.56
2019-01-11T11:29:49.929Z,5.64
2019-01-11T11:30:51.029Z,5.59
2019-01-11T11:31:49.914Z,5.64
2019-01-11T11:32:49.935Z,5.69
2019-01-11T11:33:49.903Z,5.68
2019-01-11T11:34:49.869Z,5.68
2019-01-11T11:35:49.916Z,5.62
2019-01-11T11:36:49.857Z,5.64
2019-01-11T11:37:49.842Z,5.72
2019-01-11T11:38:49.876Z,5.69
2019-01-11T11:39:49.827Z,5.68
2019-01-11T11:40:49.810Z,5.66
2019-01-11T11:41:50.433Z,5.80
2019-01-11T11:42:49.797Z,5.73
2019-01-11T11:43:49.773Z,5.73
2019-01-11T11:44:49.785Z,5.75
2019-01-11T11:45:49.771Z,5.73
2019-01-11T11:46:49.758Z,5.79
2019-01-11T11:47:49.743Z,5.90
2019-01-11T11:48:49.726Z,5.84
2019-01-11T11:49:49.709Z,5.83
2019-01-11T11:50:49.724Z,5.91
2019-01-11T11:51:49.712Z,5.82
2019-01-11T11:52:49.681Z,5.97
2019-01-11T11:53:49.667Z,5.84
2019-01-11T11:54:49.656Z,5.89
2019-01-11T11:55:49.679Z,5.86
2019-01-11T11:56:49.637Z,5.91
2019-01-11T11:57:50.437Z,5.91
2019-01-11T11:58:56.615Z,5.94
2019-01-11T11:59:49.604Z,5.94
2019-01-11T12:00:49.636Z,5.97
2019-01-11T12:01:52.442Z,6.02
2019-01-11T12:02:49.578Z,6.04
2019-01-11T12:03:49.573Z,6.04
2019-01-11T12:04:49.552Z,6.01
2019-01-11T12:05:49.531Z,6.04
2019-01-11T12:06:49.529Z,6.07
2019-01-11T12:07:49.509Z,5.99
2019-01-11T12:08:49.529Z,5.98
2019-01-11T12:09:49.521Z,5.94
2019-01-11T12:10:49.483Z,5.97
2019-01-11T12:11:49.488Z,5.99
2019-01-11T12:12:49.448Z,6.08
2019-01-11T12:13:50.443Z,6.02
2019-01-11T12:14:49.438Z,6.01
2019-01-11T12:15:49.456Z,6.11
2019-01-11T12:16:49.409Z,6.14
2019-01-11T12:17:49.386Z,6.11
2019-01-11T12:18:49.387Z,6.14
2019-01-11T12:19:49.374Z,6.07
2019-01-11T12:20:49.395Z,6.09
2019-01-11T12:21:49.420Z,6.04
2019-01-11T12:22:49.338Z,6.14
2019-01-11T12:23:49.375Z,6.12
2019-01-11T12:24:49.320Z,6.16
2019-01-11T12:25:49.373Z,6.27
2019-01-11T12:26:49.300Z,6.24
2019-01-11T12:27:49.721Z,6.24
2019-01-11T12:28:49.276Z,6.24
2019-01-11T12:29:49.271Z,6.27
2019-01-11T12:30:49.281Z,6.24
2019-01-11T12:31:49.267Z,6.27
2019-01-11T12:32:49.234Z,6.33
2019-01-11T12:33:49.237Z,6.28
2019-01-11T12:34:49.217Z,6.17
2019-01-11T12:35:49.192Z,6.26
2019-01-11T12:36:49.234Z,6.30
2019-01-11T12:37:49.270Z,6.28
2019-01-11T12:38:49.157Z,6.28
2019-01-11T12:39:49.177Z,6.28
2019-01-11T12:40:49.136Z,6.28
2019-01-11T12:41:49.151Z,6.41
2019-01-11T12:42:49.159Z,6.35
2019-01-11T12:43:49.897Z,6.31
2019-01-11T12:44:49.100Z,6.42
2019-01-11T12:45:49.106Z,6.48
2019-01-11T12:46:49.065Z,6.46
2019-01-11T12:47:49.096Z,6.56
2019-01-11T12:48:49.110Z,6.46
2019-01-11T12:49:49.034Z,6.39
2019-01-11T12:50:49.054Z,6.41
2019-01-11T12:51:53.997Z,6.59
2019-01-11T12:52:49.995Z,6.48
2019-01-11T12:53:49.137Z,6.59
2019-01-11T12:54:49.004Z,6.48
2019-01-11T12:55:48.969Z,6.54
2019-01-11T12:56:49.033Z,6.62
2019-01-11T12:57:48.976Z,6.67
2019-01-11T12:58:48.959Z,6.64
2019-01-11T12:59:48.931Z,6.60
2019-01-11T13:00:48.911Z,6.62
2019-01-11T13:01:48.908Z,6.59
2019-01-11T13:02:48.914Z,6.62
2019-01-11T13:03:48.872Z,6.64
2019-01-11T13:04:48.876Z,6.70
2019-01-11T13:05:48.852Z,6.63
2019-01-11T13:06:50.140Z,6.63
2019-01-11T13:07:48.844Z,6.72
2019-01-11T13:08:48.854Z,6.77
2019-01-11T13:09:48.821Z,6.72
2019-01-11T13:11:49.950Z,6.74
2019-01-11T13:12:48.781Z,6.78
2019-01-11T13:13:48.787Z,6.74
2019-01-11T13:14:48.789Z,6.70
2019-01-11T13:15:48.762Z,6.74
2019-01-11T13:16:48.762Z,6.72
2019-01-11T13:17:48.749Z,6.66
2019-01-11T13:18:48.721Z,6.75
2019-01-11T13:19:48.696Z,6.74